createdAt,value
2018-07-26T00:01:41.624Z,9.00
2018-07-26T00:04:12.690Z,8.60
2018-07-26T00:06:42.783Z,8.23
2018-07-26T00:09:14.758Z,8.60
2018-07-26T00:11:44.918Z,8.63
2018-07-26T00:14:17.990Z,9.83
2018-07-26T00:16:47.895Z,8.90
2018-07-26T00:19:20.733Z,9.10
2018-07-26T00:21:50.905Z,8.30
2018-07-26T00:24:22.739Z,9.23
2018-07-26T00:26:51.752Z,9.00
2018-07-26T00:29:28.205Z,9.77
2018-07-26T00:31:57.914Z,9.40
2018-07-26T00:34:27.538Z,8.93
2018-07-26T00:36:57.076Z,9.47
2018-07-26T00:39:35.375Z,9.97
2018-07-26T00:42:04.724Z,9.30
2018-07-26T00:44:33.958Z,9.73
2018-07-26T00:47:03.729Z,9.40
2018-07-26T00:49:36.820Z,9.03
2018-07-26T00:52:06.943Z,8.63
2018-07-26T00:54:38.823Z,9.73
2018-07-26T00:57:09.763Z,9.43
2018-07-26T00:59:41.767Z,8.53
2018-07-26T01:02:11.311Z,8.77
2018-07-26T01:04:45.504Z,9.23
2018-07-26T01:07:14.924Z,9.00
2018-07-26T01:09:45.808Z,9.53
2018-07-26T01:12:15.319Z,8.97
2018-07-26T01:14:48.448Z,9.83
2018-07-26T01:17:17.940Z,9.67
2018-07-26T01:19:52.082Z,9.03
2018-07-26T01:22:23.379Z,10.10
2018-07-26T01:24:56.150Z,10.27
2018-07-26T01:27:26.203Z,10.10
2018-07-26T01:29:59.096Z,10.07
2018-07-26T01:32:29.976Z,9.63
2018-07-26T01:34:59.979Z,9.20
2018-07-26T01:37:29.818Z,9.87
2018-07-26T01:40:03.296Z,9.80
2018-07-26T01:44:44.424Z,9.00
2018-07-26T01:47:15.486Z,9.63
2018-07-26T01:49:45.002Z,9.30
2018-07-26T01:52:14.383Z,9.67
2018-07-26T01:54:43.858Z,9.07
2018-07-26T01:57:13.570Z,9.30
2018-07-26T01:59:42.662Z,8.83
2018-07-26T02:02:19.085Z,9.60
2018-07-26T02:04:49.074Z,9.20
2018-07-26T02:07:17.999Z,8.37
2018-07-26T02:09:46.992Z,9.30
2018-07-26T02:12:21.049Z,8.50
2018-07-26T02:14:50.403Z,8.70
2018-07-26T02:17:23.458Z,8.90
2018-07-26T02:19:53.495Z,9.53
2018-07-26T02:22:25.167Z,9.10
2018-07-26T02:24:54.259Z,8.30
2018-07-26T02:27:30.631Z,8.27
2018-07-26T02:30:00.837Z,8.50
2018-07-26T02:32:30.695Z,9.27
2018-07-26T02:35:01.550Z,8.23
2018-07-26T02:37:32.595Z,8.13
2018-07-26T02:40:01.749Z,8.73
2018-07-26T02:42:34.120Z,9.10
2018-07-26T02:45:04.017Z,9.53
2018-07-26T02:47:36.592Z,9.03
2018-07-26T02:50:06.021Z,9.00
2018-07-26T02:52:39.229Z,8.43
2018-07-26T02:55:08.604Z,8.67
2018-07-26T02:57:41.399Z,9.37
2018-07-26T03:00:10.749Z,8.97
2018-07-26T03:02:44.138Z,8.93
2018-07-26T03:05:13.244Z,9.20
2018-07-26T03:07:49.777Z,8.93
2018-07-26T03:10:18.739Z,8.40
2018-07-26T03:12:51.420Z,9.47
2018-07-26T03:15:21.361Z,9.90
2018-07-26T03:17:52.193Z,9.57
2018-07-26T03:20:21.497Z,9.50
2018-07-26T03:22:55.756Z,9.40
2018-07-26T03:25:27.776Z,9.00
2018-07-26T03:27:59.326Z,10.10
2018-07-26T03:30:29.787Z,9.77
2018-07-26T03:33:02.973Z,10.50
2018-07-26T03:35:32.790Z,10.80
2018-07-26T03:38:05.298Z,11.30
2018-07-26T03:40:34.292Z,9.97
2018-07-26T03:43:07.512Z,9.87
2018-07-26T03:45:37.393Z,9.80
2018-07-26T03:48:15.330Z,9.40
2018-07-26T03:50:44.928Z,9.13
2018-07-26T03:53:14.769Z,9.53
2018-07-26T03:55:44.249Z,9.27
2018-07-26T03:58:16.759Z,9.47
2018-07-26T04:00:46.207Z,10.33
2018-07-26T04:03:17.967Z,9.67
2018-07-26T04:05:47.456Z,9.23
2018-07-26T04:08:24.787Z,10.10
2018-07-26T04:10:54.443Z,9.40
2018-07-26T04:13:24.354Z,9.50
2018-07-26T04:15:53.465Z,9.70
2018-07-26T04:18:26.401Z,9.27
2018-07-26T04:20:56.511Z,10.63
2018-07-26T04:23:28.044Z,9.77
2018-07-26T04:26:01.434Z,9.83
2018-07-26T04:28:31.013Z,9.77
2018-07-26T04:31:01.344Z,10.57
2018-07-26T04:33:32.853Z,10.53
2018-07-26T04:36:02.088Z,10.40
2018-07-26T04:38:35.316Z,10.67
2018-07-26T04:41:04.844Z,8.93
2018-07-26T04:43:37.469Z,9.93
2018-07-26T04:46:07.076Z,10.30
2018-07-26T04:48:39.954Z,10.47
2018-07-26T04:51:10.462Z,9.97
2018-07-26T04:53:44.608Z,10.13
2018-07-26T04:56:15.485Z,10.10
2018-07-26T04:58:47.224Z,10.90
2018-07-26T05:01:17.024Z,10.80
2018-07-26T05:03:50.627Z,10.37
2018-07-26T05:06:20.072Z,10.70
2018-07-26T05:11:12.320Z,10.40
2018-07-26T05:13:42.112Z,9.03
2018-07-26T05:16:12.012Z,10.97
2018-07-26T05:18:45.285Z,11.77
2018-07-26T05:21:15.716Z,10.97
2018-07-26T05:23:45.101Z,10.67
2018-07-26T05:26:14.580Z,13.43
2018-07-26T05:28:44.146Z,12.63
2018-07-26T05:31:13.633Z,12.33
2018-07-26T05:33:43.168Z,12.03
2018-07-26T05:36:15.176Z,12.70
2018-07-26T05:38:45.728Z,11.90
2018-07-26T05:41:16.126Z,11.97
2018-07-26T05:43:45.669Z,11.77
2018-07-26T05:46:15.710Z,11.30
2018-07-26T05:48:45.781Z,11.37
2018-07-26T05:51:15.990Z,10.67
2018-07-26T05:53:45.880Z,10.93
2018-07-26T05:56:18.754Z,10.47
2018-07-26T05:58:48.964Z,10.70
2018-07-26T06:01:23.603Z,10.57
2018-07-26T06:03:53.151Z,9.67
2018-07-26T06:06:24.083Z,9.13
2018-07-26T06:08:56.238Z,9.73
2018-07-26T06:11:28.803Z,8.90
2018-07-26T06:13:58.514Z,9.03
2018-07-26T06:16:32.813Z,9.63
2018-07-26T06:19:03.175Z,9.40
2018-07-26T06:21:32.708Z,9.13
2018-07-26T06:24:04.156Z,9.00
2018-07-26T06:26:34.176Z,8.23
2018-07-26T06:29:04.211Z,9.43
2018-07-26T06:31:35.801Z,8.57
2018-07-26T06:34:06.064Z,8.60
2018-07-26T06:36:37.750Z,9.17
2018-07-26T06:39:10.874Z,11.07
2018-07-26T06:41:41.499Z,10.60
2018-07-26T06:44:11.019Z,11.03
2018-07-26T06:46:42.484Z,8.90
2018-07-26T06:49:13.642Z,8.43
2018-07-26T06:51:46.254Z,7.03
2018-07-26T06:54:16.005Z,8.77
2018-07-26T06:56:48.023Z,8.27
2018-07-26T06:59:20.010Z,9.07
2018-07-26T07:01:54.185Z,7.90
2018-07-26T07:04:25.838Z,8.87
2018-07-26T07:06:56.502Z,9.30
2018-07-26T07:09:27.389Z,9.77
2018-07-26T07:11:59.585Z,9.63
2018-07-26T07:14:31.931Z,8.37
2018-07-26T07:17:02.023Z,8.30
2018-07-26T07:19:39.117Z,8.97
2018-07-26T07:22:09.171Z,6.77
2018-07-26T07:24:39.828Z,7.37
2018-07-26T07:27:11.884Z,6.37
2018-07-26T07:29:41.627Z,5.87
2018-07-26T07:32:12.428Z,5.23
2018-07-26T07:34:43.533Z,6.13
2018-07-26T07:37:14.265Z,5.00
2018-07-26T07:39:44.602Z,5.13
2018-07-26T07:42:16.176Z,4.77
2018-07-26T07:44:46.696Z,5.20
2018-07-26T07:47:17.252Z,5.13
2018-07-26T07:49:47.150Z,5.20
2018-07-26T07:52:25.348Z,4.03
2018-07-26T07:54:55.271Z,4.03
2018-07-26T07:57:25.187Z,4.57
2018-07-26T07:59:55.151Z,3.70
2018-07-26T08:02:26.210Z,3.53
2018-07-26T08:04:57.392Z,3.40
2018-07-26T08:07:29.218Z,3.47
2018-07-26T08:09:58.869Z,3.37
2018-07-26T08:12:30.508Z,3.23
2018-07-26T08:15:01.250Z,3.50
2018-07-26T08:17:32.495Z,3.57
2018-07-26T08:22:37.695Z,3.63
2018-07-26T08:25:13.167Z,3.87
2018-07-26T08:27:44.018Z,3.10
2018-07-26T08:30:15.145Z,4.17
2018-07-26T08:32:47.126Z,3.17
2018-07-26T08:35:18.545Z,3.23
2018-07-26T08:37:50.025Z,3.57
2018-07-26T08:40:22.744Z,4.10
2018-07-26T08:42:53.306Z,3.67
2018-07-26T08:45:23.250Z,4.10
2018-07-26T08:47:55.560Z,3.37
2018-07-26T08:50:25.604Z,3.87
2018-07-26T08:52:55.747Z,3.93
2018-07-26T08:55:26.790Z,3.37
2018-07-26T08:57:57.813Z,3.50
2018-07-26T09:00:29.666Z,3.30
2018-07-26T09:02:59.670Z,2.90
2018-07-26T09:05:29.764Z,3.03
2018-07-26T09:08:03.350Z,3.17
2018-07-26T09:10:37.547Z,2.90
2018-07-26T09:13:08.314Z,3.00
2018-07-26T09:15:39.418Z,2.97
2018-07-26T09:18:09.605Z,2.90
2018-07-26T09:20:39.704Z,3.10
2018-07-26T09:23:10.776Z,3.17
2018-07-26T09:25:43.550Z,2.60
2018-07-26T09:28:14.197Z,2.63
2018-07-26T09:30:46.133Z,3.20
2018-07-26T09:33:16.807Z,2.77
2018-07-26T09:35:48.083Z,3.03
2018-07-26T09:38:21.425Z,3.70
2018-07-26T09:40:52.478Z,2.63
2018-07-26T09:43:22.780Z,2.67
2018-07-26T09:45:52.562Z,3.67
2018-07-26T09:48:24.622Z,2.57
2018-07-26T09:50:55.081Z,3.20
2018-07-26T09:53:28.173Z,3.13
2018-07-26T09:55:58.849Z,3.43
2018-07-26T09:58:33.677Z,3.63
2018-07-26T10:01:09.519Z,3.50
2018-07-26T10:03:40.869Z,2.73
2018-07-26T10:06:12.526Z,2.43
2018-07-26T10:08:43.008Z,3.10
2018-07-26T10:11:14.873Z,2.60
2018-07-26T10:13:45.160Z,2.27
2018-07-26T10:16:17.930Z,2.70
2018-07-26T10:18:48.529Z,2.40
2018-07-26T10:21:21.810Z,3.03
2018-07-26T10:23:52.165Z,2.60
2018-07-26T10:26:23.297Z,2.83
2018-07-26T10:28:53.262Z,3.03
2018-07-26T10:31:22.382Z,2.07
2018-07-26T10:33:52.185Z,2.27
2018-07-26T10:36:23.153Z,2.37
2018-07-26T10:38:53.487Z,2.23
2018-07-26T10:41:22.822Z,2.80
2018-07-26T10:43:52.082Z,2.63
2018-07-26T10:46:24.205Z,2.60
2018-07-26T10:48:54.129Z,2.47
2018-07-26T10:51:24.835Z,2.83
2018-07-26T10:53:54.704Z,3.23
2018-07-26T10:56:24.550Z,2.90
2018-07-26T10:58:59.321Z,2.67
2018-07-26T11:01:28.282Z,3.07
2018-07-26T11:04:01.850Z,3.07
2018-07-26T11:06:41.152Z,2.37
2018-07-26T11:09:11.137Z,3.07
2018-07-26T11:11:41.842Z,2.90
2018-07-26T11:14:10.824Z,3.13
2018-07-26T11:16:39.998Z,2.43
2018-07-26T11:19:11.937Z,2.43
2018-07-26T11:21:42.511Z,2.20
2018-07-26T11:26:44.507Z,2.43
2018-07-26T11:29:13.874Z,2.53
2018-07-26T11:31:43.830Z,2.67
2018-07-26T11:34:17.296Z,2.30
2018-07-26T11:36:46.317Z,2.80
2018-07-26T11:39:19.452Z,2.60
2018-07-26T11:41:49.438Z,2.73
2018-07-26T11:44:23.255Z,2.43
2018-07-26T11:46:52.824Z,2.60
2018-07-26T11:49:28.196Z,3.07
2018-07-26T11:51:57.086Z,3.47
2018-07-26T11:54:36.253Z,2.70
2018-07-26T11:57:06.887Z,3.13
2018-07-26T11:59:36.104Z,3.60
2018-07-26T12:02:05.457Z,3.17
2018-07-26T12:04:34.702Z,2.77
2018-07-26T12:07:04.987Z,2.90
2018-07-26T12:09:34.408Z,2.23
2018-07-26T12:12:05.140Z,3.20
2018-07-26T12:14:36.163Z,2.50
2018-07-26T12:17:05.225Z,2.47
2018-07-26T12:19:41.644Z,3.23
2018-07-26T12:22:11.134Z,2.60
2018-07-26T12:24:42.699Z,2.73
2018-07-26T12:27:11.540Z,2.87
2018-07-26T12:29:44.328Z,2.80
2018-07-26T12:32:13.601Z,3.73
2018-07-26T12:34:50.390Z,3.13
2018-07-26T12:37:21.655Z,3.53
2018-07-26T12:39:53.319Z,3.47
2018-07-26T12:42:27.904Z,2.40
2018-07-26T12:45:04.576Z,4.00
2018-07-26T12:47:33.998Z,4.00
2018-07-26T12:50:03.477Z,4.73
2018-07-26T12:52:33.263Z,3.90
2018-07-26T12:55:02.218Z,3.80
2018-07-26T12:57:31.696Z,3.67
2018-07-26T13:00:01.119Z,4.23
2018-07-26T13:02:32.652Z,4.43
2018-07-26T13:05:03.254Z,4.20
2018-07-26T13:07:32.433Z,4.87
2018-07-26T13:10:08.970Z,4.60
2018-07-26T13:12:37.849Z,4.80
2018-07-26T13:15:15.993Z,4.73
2018-07-26T13:17:45.165Z,4.80
2018-07-26T13:20:16.714Z,5.10
2018-07-26T13:22:45.761Z,5.40
2018-07-26T13:25:17.429Z,5.53
2018-07-26T13:27:46.579Z,4.33
2018-07-26T13:30:23.674Z,5.37
2018-07-26T13:32:53.964Z,4.13
2018-07-26T13:35:23.962Z,3.93
2018-07-26T13:38:20.881Z,3.73
2018-07-26T13:40:49.683Z,4.63
2018-07-26T13:43:25.863Z,3.70
2018-07-26T13:45:56.199Z,2.43
2018-07-26T13:48:24.674Z,3.47
2018-07-26T13:50:53.664Z,3.00
2018-07-26T13:53:31.721Z,3.90
2018-07-26T13:56:00.729Z,3.53
2018-07-26T13:58:31.196Z,2.97
2018-07-26T14:01:00.689Z,3.20
2018-07-26T14:03:35.190Z,3.20
2018-07-26T14:06:05.875Z,2.93
2018-07-26T14:08:35.186Z,3.03
2018-07-26T14:11:06.699Z,3.43
2018-07-26T14:13:38.266Z,3.17
2018-07-26T14:16:07.537Z,2.47
2018-07-26T14:18:41.158Z,2.80
2018-07-26T14:21:10.321Z,2.20
2018-07-26T14:23:42.487Z,3.00
2018-07-26T14:26:12.678Z,3.10
2018-07-26T14:28:46.409Z,2.97
2018-07-26T14:31:19.094Z,4.00
2018-07-26T14:33:49.187Z,3.23
2018-07-26T14:36:19.689Z,3.33
2018-07-26T14:38:57.101Z,4.77
2018-07-26T14:41:26.672Z,3.90
2018-07-26T14:43:55.447Z,2.73
2018-07-26T14:46:24.510Z,3.03
2018-07-26T14:48:57.222Z,3.40
2018-07-26T14:51:27.131Z,2.93
2018-07-26T14:54:01.291Z,3.53
2018-07-26T14:56:34.627Z,3.30
2018-07-26T14:59:03.945Z,3.23
2018-07-26T15:01:33.781Z,4.33
2018-07-26T15:04:04.166Z,3.97
2018-07-26T15:06:33.182Z,3.90
2018-07-26T15:09:10.307Z,2.70
2018-07-26T15:11:42.185Z,3.03
2018-07-26T15:14:11.825Z,2.80
2018-07-26T15:16:44.429Z,3.90
2018-07-26T15:19:15.930Z,3.67
2018-07-26T15:21:46.953Z,2.73
2018-07-26T15:24:16.148Z,2.87
2018-07-26T15:26:45.661Z,2.70
2018-07-26T15:29:21.553Z,2.63
2018-07-26T15:31:51.546Z,2.60
2018-07-26T15:34:21.835Z,3.13
2018-07-26T15:36:51.287Z,3.17
2018-07-26T15:39:32.369Z,3.10
2018-07-26T15:42:01.124Z,4.90
2018-07-26T15:44:32.086Z,3.00
2018-07-26T15:47:01.759Z,2.13
2018-07-26T15:49:31.169Z,2.10
2018-07-26T15:52:00.221Z,2.50
2018-07-26T15:54:31.436Z,2.57
2018-07-26T15:57:00.396Z,2.40
2018-07-26T15:59:33.164Z,2.70
2018-07-26T16:02:03.701Z,2.03
2018-07-26T16:04:36.658Z,2.40
2018-07-26T16:07:05.657Z,3.10
2018-07-26T16:09:42.245Z,2.87
2018-07-26T16:12:11.169Z,2.70
2018-07-26T16:14:40.893Z,2.43
2018-07-26T16:17:12.515Z,2.30
2018-07-26T16:19:42.751Z,2.40
2018-07-26T16:22:15.721Z,3.80
2018-07-26T16:24:44.782Z,2.73
2018-07-26T16:27:14.233Z,2.30
2018-07-26T16:29:52.680Z,2.70
2018-07-26T16:32:23.601Z,2.70
2018-07-26T16:34:57.425Z,2.97
2018-07-26T16:37:26.974Z,3.10
2018-07-26T16:39:58.687Z,2.77
2018-07-26T16:42:28.216Z,2.40
2018-07-26T16:45:00.577Z,2.90
2018-07-26T16:47:31.337Z,2.63
2018-07-26T16:50:02.501Z,2.37
2018-07-26T16:52:32.478Z,2.20
2018-07-26T16:55:05.560Z,3.53
2018-07-26T16:57:35.210Z,3.00
2018-07-26T17:00:10.626Z,2.60
2018-07-26T17:02:40.007Z,4.30
2018-07-26T17:05:09.371Z,6.83
2018-07-26T17:07:38.625Z,2.93
2018-07-26T17:10:16.341Z,3.20
2018-07-26T17:12:48.620Z,3.80
2018-07-26T17:15:18.683Z,3.07
2018-07-26T17:17:48.189Z,3.23
2018-07-26T17:20:17.876Z,4.13
2018-07-26T17:22:46.898Z,2.30
2018-07-26T17:25:24.597Z,1.67
2018-07-26T17:27:55.997Z,2.77
2018-07-26T17:30:25.670Z,2.87
2018-07-26T17:32:54.981Z,2.03
2018-07-26T17:35:27.996Z,2.53
2018-07-26T17:37:57.208Z,3.93
2018-07-26T17:43:02.540Z,3.20
2018-07-26T17:45:33.697Z,2.63
2018-07-26T17:48:03.445Z,2.13
2018-07-26T17:50:32.341Z,2.20
2018-07-26T17:53:02.625Z,2.50
2018-07-26T17:55:35.970Z,2.53
2018-07-26T17:58:06.047Z,1.93
2018-07-26T18:00:40.091Z,2.87
2018-07-26T18:03:09.196Z,2.30
2018-07-26T18:05:40.099Z,2.73
2018-07-26T18:08:08.999Z,2.27
2018-07-26T18:10:42.177Z,2.50
2018-07-26T18:13:11.628Z,2.87
2018-07-26T18:15:44.597Z,3.00
2018-07-26T18:18:13.724Z,2.30
2018-07-26T18:20:50.153Z,2.70
2018-07-26T18:23:19.281Z,3.20
2018-07-26T18:25:49.165Z,3.13
2018-07-26T18:28:18.718Z,2.30
2018-07-26T18:30:57.705Z,2.33
2018-07-26T18:33:30.431Z,3.07
2018-07-26T18:36:00.024Z,2.03
2018-07-26T18:38:35.571Z,2.97
2018-07-26T18:41:24.937Z,3.60
2018-07-26T18:44:02.475Z,3.23
2018-07-26T18:46:31.329Z,3.00
2018-07-26T18:49:02.159Z,3.13
2018-07-26T18:51:31.776Z,3.23
2018-07-26T18:54:05.023Z,3.67
2018-07-26T18:56:33.921Z,3.57
2018-07-26T18:59:09.674Z,3.13
2018-07-26T19:01:39.668Z,4.10
2018-07-26T19:04:14.720Z,3.70
2018-07-26T19:06:44.006Z,4.03
2018-07-26T19:09:13.335Z,3.30
2018-07-26T19:11:45.373Z,3.40
2018-07-26T19:14:22.701Z,3.63
2018-07-26T19:16:52.244Z,3.37
2018-07-26T19:19:21.558Z,3.10
2018-07-26T19:21:56.227Z,3.20
2018-07-26T19:24:26.397Z,11.77
2018-07-26T19:26:56.437Z,5.23
2018-07-26T19:29:26.848Z,5.27
2018-07-26T19:31:58.201Z,4.37
2018-07-26T19:34:31.645Z,4.20
2018-07-26T19:37:07.272Z,4.27
2018-07-26T19:39:38.254Z,3.60
2018-07-26T19:42:10.313Z,4.30
2018-07-26T19:44:39.412Z,3.63
2018-07-26T19:47:08.827Z,3.83
2018-07-26T19:49:39.290Z,3.83
2018-07-26T19:52:09.680Z,4.00
2018-07-26T19:54:39.632Z,3.40
2018-07-26T19:57:10.866Z,3.67
2018-07-26T19:59:41.744Z,4.07
2018-07-26T20:02:11.704Z,3.90
2018-07-26T20:04:43.441Z,4.00
2018-07-26T20:07:13.162Z,3.93
2018-07-26T20:09:44.274Z,4.23
2018-07-26T20:12:15.174Z,3.40
2018-07-26T20:14:47.958Z,3.87
2018-07-26T20:17:17.668Z,4.20
2018-07-26T20:19:52.181Z,3.60
2018-07-26T20:22:21.252Z,3.83
2018-07-26T20:24:54.817Z,3.83
2018-07-26T20:27:24.244Z,4.30
2018-07-26T20:30:02.325Z,4.00
2018-07-26T20:32:33.308Z,4.30
2018-07-26T20:35:03.520Z,4.30
2018-07-26T20:37:34.569Z,3.90
2018-07-26T20:40:04.163Z,3.53
2018-07-26T20:42:37.570Z,3.90
2018-07-26T20:45:08.753Z,3.93
2018-07-26T20:47:37.969Z,3.37
2018-07-26T20:50:08.730Z,4.03
2018-07-26T20:52:38.669Z,3.90
2018-07-26T20:55:15.240Z,3.23
2018-07-26T20:57:44.150Z,4.10
2018-07-26T21:00:16.097Z,3.50
2018-07-26T21:02:48.546Z,4.20
2018-07-26T21:05:18.725Z,4.93
2018-07-26T21:07:49.847Z,4.37
2018-07-26T21:10:21.137Z,4.10
2018-07-26T21:12:53.150Z,3.67
2018-07-26T21:15:22.457Z,4.40
2018-07-26T21:17:52.103Z,3.73
2018-07-26T21:20:23.670Z,3.67
2018-07-26T21:22:55.607Z,3.90
2018-07-26T21:25:29.149Z,2.83
2018-07-26T21:30:41.661Z,3.03
2018-07-26T21:33:12.146Z,6.03
2018-07-26T21:35:44.112Z,6.13
2018-07-26T21:38:15.685Z,3.43
2018-07-26T21:40:47.679Z,4.37
2018-07-26T21:43:21.428Z,3.20
2018-07-26T21:45:50.295Z,2.90
2018-07-26T21:48:19.874Z,3.33
2018-07-26T21:50:50.460Z,3.97
2018-07-26T21:53:19.600Z,3.70
2018-07-26T21:55:51.042Z,4.50
2018-07-26T21:58:20.235Z,3.30
2018-07-26T22:00:54.377Z,4.20
2018-07-26T22:03:23.204Z,4.00
2018-07-26T22:05:52.600Z,5.17
2018-07-26T22:08:21.511Z,2.93
2018-07-26T22:10:51.539Z,4.00
2018-07-26T22:13:21.243Z,2.30
2018-07-26T22:15:51.493Z,3.40
2018-07-26T22:18:22.421Z,3.30
2018-07-26T22:20:52.612Z,2.77
2018-07-26T22:23:23.213Z,2.93
2018-07-26T22:25:58.264Z,2.80
2018-07-26T22:28:27.902Z,3.13
2018-07-26T22:30:58.391Z,2.83
2018-07-26T22:33:28.085Z,2.60
2018-07-26T22:36:04.568Z,2.43
2018-07-26T22:38:34.179Z,2.57
2018-07-26T22:41:04.354Z,2.63
2018-07-26T22:43:34.411Z,2.83
2018-07-26T22:46:06.756Z,2.97
2018-07-26T22:48:38.409Z,2.63
2018-07-26T22:51:11.183Z,2.67
2018-07-26T22:53:42.590Z,2.63
2018-07-26T22:56:13.987Z,2.77
2018-07-26T22:58:43.741Z,3.53
2018-07-26T23:01:15.701Z,3.23
2018-07-26T23:03:51.903Z,3.67
2018-07-26T23:06:21.815Z,3.47
2018-07-26T23:08:52.145Z,3.10
2018-07-26T23:11:22.171Z,3.10
2018-07-26T23:13:51.536Z,3.10
2018-07-26T23:16:24.156Z,2.80
2018-07-26T23:18:53.536Z,2.80
2018-07-26T23:21:25.654Z,3.20
2018-07-26T23:23:54.349Z,3.03
2018-07-26T23:26:27.395Z,2.77
2018-07-26T23:28:56.171Z,2.60
2018-07-26T23:31:32.518Z,2.40
2018-07-26T23:34:02.017Z,2.90
2018-07-26T23:38:04.353Z,3.87
2018-07-26T23:40:33.821Z,3.60
2018-07-26T23:43:02.780Z,4.10
2018-07-26T23:45:43.255Z,3.60
2018-07-26T23:48:13.105Z,3.13
2018-07-26T23:50:42.403Z,3.17
2018-07-26T23:53:12.156Z,2.43
2018-07-26T23:55:41.224Z,2.73
2018-07-26T23:58:10.668Z,2.27
